Time;durP1;ratioP1;P1;durP2;ratioP2;P2;SDS_P1;SDS_P2;PMS_P1;PMS_P2;Temp;Humidity;BMP_temperature;BMP_pressure;BME280_temperature;BME280_humidity;BME280_pressure;Samples;Min_cycle;Max_cycle;Signal;HPM_P1;HPM_P2
2023/09/03 00:00:09;;;;;;;39.28;28.73;;;;;;;;;;7327782;19;20721;-73
2023/09/03 00:02:34;;;;;;;46.33;29.90;;;;;;;;;;7359487;19;20010;-74
2023/09/03 00:04:59;;;;;;;46.63;31.07;;;;;;;;;;7347648;19;20029;-74
2023/09/03 00:07:24;;;;;;;45.83;28.70;;;;;;;;;;7349843;19;20475;-76
2023/09/03 00:09:50;;;;;;;45.33;30.20;;;;;;;;;;7350335;19;20061;-76
2023/09/03 00:12:15;;;;;;;42.27;27.80;;;;;;;;;;7347437;19;20249;-75
2023/09/03 00:14:40;;;;;;;39.33;26.13;;;;;;;;;;7344891;19;20450;-74
2023/09/03 00:17:05;;;;;;;42.67;26.33;;;;;;;;;;7354209;19;20557;-76
2023/09/03 00:19:30;;;;;;;43.33;28.20;;;;;;;;;;7358617;19;20235;-76
2023/09/03 00:21:55;;;;;;;47.03;30.73;;;;;;;;;;7354412;19;19999;-76
2023/09/03 00:24:21;;;;;;;67.40;37.37;;;;;;;;;;7353795;19;20010;-76
2023/09/03 00:26:46;;;;;;;63.80;36.90;;;;;;;;;;7356263;19;20006;-76
2023/09/03 00:29:11;;;;;;;70.43;40.03;;;;;;;;;;7345301;19;20330;-75
2023/09/03 00:31:36;;;;;;;64.05;37.00;;;;;;;;;;7352317;19;20003;-76
2023/09/03 00:34:01;;;;;;;84.87;46.80;;;;;;;;;;7351965;19;20468;-76
2023/09/03 00:36:27;;;;;;;72.33;42.40;;;;;;;;;;7341689;19;20864;-75
2023/09/03 00:38:52;;;;;;;66.43;39.40;;;;;;;;;;7342415;19;20259;-76
2023/09/03 00:41:18;;;;;;;78.18;43.33;;;;;;;;;;7346802;19;20399;-76
2023/09/03 00:43:43;;;;;;;85.82;46.65;;;;;;;;;;7302269;19;20022;-76
2023/09/03 00:46:08;;;;;;;101.57;52.33;;;;;;;;;;7329168;19;20427;-76
2023/09/03 00:48:34;;;;;;;111.37;56.00;;;;;;;;;;7328546;19;20098;-75
2023/09/03 00:51:02;;;;;;;114.78;55.60;;;;;;;;;;7333486;19;20227;-74
2023/09/03 00:53:28;;;;;;;102.95;54.47;;;;;;;;;;7348542;19;19999;-74
2023/09/03 00:55:54;;;;;;;112.75;58.58;;;;;;;;;;7346792;19;19999;-74
2023/09/03 00:58:19;;;;;;;101.05;53.75;;;;;;;;;;7334077;19;20053;-74
2023/09/03 01:00:44;;;;;;;101.97;54.88;;;;;;;;;;7330830;19;20015;-74
2023/09/03 01:03:10;;;;;;;110.65;57.00;;;;;;;;;;7350827;19;20019;-74
2023/09/03 01:05:35;;;;;;;112.47;58.38;;;;;;;;;;7336447;19;20514;-74
2023/09/03 01:08:01;;;;;;;102.17;55.60;;;;;;;;;;7336045;19;19999;-74
2023/09/03 01:10:29;;;;;;;89.15;52.33;;;;;;;;;;7336334;19;20078;-74
2023/09/03 01:13:01;;;;;;;97.15;52.97;;;;;;;;;;7329018;19;20389;-74
2023/09/03 01:15:32;;;;;;;98.25;54.20;;;;;;;;;;7339153;19;20026;-74
2023/09/03 01:18:09;;;;;;;93.75;51.38;;;;;;;;;;7340133;19;20013;-74
2023/09/03 01:20:34;;;;;;;94.38;52.42;;;;;;;;;;7341079;19;20137;-74
2023/09/03 01:23:06;;;;;;;97.80;52.33;;;;;;;;;;7346907;19;20058;-76
2023/09/03 01:25:47;;;;;;;86.32;51.42;;;;;;;;;;7342540;19;20265;-74
2023/09/03 01:28:32;;;;;;;84.60;49.95;;;;;;;;;;7331550;19;20013;-74
2023/09/03 01:31:02;;;;;;;84.07;51.20;;;;;;;;;;7346656;19;20450;-75
2023/09/03 01:33:28;;;;;;;90.38;52.17;;;;;;;;;;7338706;19;19999;-76
2023/09/03 01:35:54;;;;;;;91.03;50.63;;;;;;;;;;7351108;19;20025;-76
2023/09/03 01:38:20;;;;;;;81.50;49.80;;;;;;;;;;7344808;19;19994;-76
2023/09/03 01:40:48;;;;;;;93.00;53.55;;;;;;;;;;7346719;19;20542;-76
2023/09/03 01:43:13;;;;;;;87.93;51.35;;;;;;;;;;7273583;19;21120;-75
2023/09/03 01:45:58;;;;;;;90.55;52.28;;;;;;;;;;7245201;19;20117;-73
2023/09/03 01:48:39;;;;;;;93.10;52.08;;;;;;;;;;7253015;19;20094;-74
2023/09/03 01:51:18;;;;;;;87.97;50.85;;;;;;;;;;7257829;19;20003;-74
2023/09/03 01:53:53;;;;;;;90.53;51.55;;;;;;;;;;7252022;19;20281;-75
2023/09/03 01:56:20;;;;;;;89.50;48.58;;;;;;;;;;7253689;19;20950;-74
2023/09/03 01:58:46;;;;;;;83.90;49.05;;;;;;;;;;7242048;19;20005;-74
2023/09/03 02:01:12;;;;;;;92.63;51.03;;;;;;;;;;7251543;19;20040;-74
2023/09/03 02:03:38;;;;;;;95.05;50.38;;;;;;;;;;7247986;19;20038;-74
2023/09/03 02:06:05;;;;;;;91.57;51.78;;;;;;;;;;7250523;19;20010;-74
2023/09/03 02:08:30;;;;;;;107.38;53.97;;;;;;;;;;7261276;19;20429;-75
2023/09/03 02:10:55;;;;;;;105.73;51.67;;;;;;;;;;7254661;19;20265;-74
2023/09/03 02:13:20;;;;;;;105.47;52.93;;;;;;;;;;7261584;19;20644;-74
2023/09/03 02:15:47;;;;;;;113.88;54.05;;;;;;;;;;7252501;19;20323;-73
2023/09/03 02:18:12;;;;;;;117.82;57.60;;;;;;;;;;7237471;19;20982;-73
2023/09/03 02:20:37;;;;;;;104.90;55.80;;;;;;;;;;7249937;19;20409;-74
2023/09/03 02:23:02;;;;;;;125.70;61.25;;;;;;;;;;7247783;19;20452;-74
2023/09/03 02:25:27;;;;;;;124.03;60.67;;;;;;;;;;7250833;19;20018;-73
2023/09/03 02:27:53;;;;;;;115.50;59.00;;;;;;;;;;7249048;19;20250;-74
2023/09/03 02:30:19;;;;;;;103.47;55.60;;;;;;;;;;7247783;19;20718;-74
2023/09/03 02:32:44;;;;;;;100.28;53.67;;;;;;;;;;7250971;19;20395;-73
2023/09/03 02:35:09;;;;;;;104.40;56.57;;;;;;;;;;7252040;19;20183;-74
2023/09/03 02:37:35;;;;;;;107.97;55.83;;;;;;;;;;7241228;19;20971;-73
2023/09/03 02:40:00;;;;;;;106.43;59.40;;;;;;;;;;7220686;19;20009;-74
2023/09/03 02:42:25;;;;;;;114.67;61.70;;;;;;;;;;7223818;19;20486;-74
2023/09/03 02:44:50;;;;;;;109.50;58.10;;;;;;;;;;7328604;19;20625;-74
2023/09/03 02:47:15;;;;;;;107.20;57.80;;;;;;;;;;7345017;19;20243;-76
2023/09/03 02:49:41;;;;;;;96.90;54.47;;;;;;;;;;7338184;19;20487;-76
2023/09/03 02:52:06;;;;;;;98.35;54.67;;;;;;;;;;7341035;19;20394;-76
2023/09/03 02:54:32;;;;;;;105.45;56.80;;;;;;;;;;7335249;19;20554;-76
2023/09/03 02:56:57;;;;;;;100.83;56.10;;;;;;;;;;7335513;19;20458;-75
2023/09/03 02:59:22;;;;;;;94.17;52.37;;;;;;;;;;7326699;19;20011;-75
2023/09/03 03:01:47;;;;;;;91.37;51.50;;;;;;;;;;7340018;19;20041;-75
